sensor_id;sensor_type;location;lat;lon;timestamp;pressure;altitude;pressure_sealevel;temperature;humidity
66398;BME280;54877;51.504;3.894;2023-07-02T00:01:34;100873.50;;;21.39;55.66
66398;BME280;54877;51.504;3.894;2023-07-02T00:04:00;100875.50;;;21.37;53.98
66398;BME280;54877;51.504;3.894;2023-07-02T00:06:25;100864.44;;;21.40;52.79
66398;BME280;54877;51.504;3.894;2023-07-02T00:08:50;100868.81;;;21.41;51.73
66398;BME280;54877;51.504;3.894;2023-07-02T00:11:16;100870.41;;;21.34;51.07
66398;BME280;54877;51.504;3.894;2023-07-02T00:13:41;100867.97;;;21.40;50.26
66398;BME280;54877;51.504;3.894;2023-07-02T00:16:06;100864.72;;;21.37;49.79
66398;BME280;54877;51.504;3.894;2023-07-02T00:18:32;100874.06;;;21.42;49.91
66398;BME280;54877;51.504;3.894;2023-07-02T00:21:00;100877.19;;;21.47;50.32
66398;BME280;54877;51.504;3.894;2023-07-02T00:23:27;100874.31;;;21.49;49.64
66398;BME280;54877;51.504;3.894;2023-07-02T00:25:53;100872.63;;;21.48;49.60
66398;BME280;54877;51.504;3.894;2023-07-02T00:28:18;100864.56;;;21.48;48.73
66398;BME280;54877;51.504;3.894;2023-07-02T00:30:43;100867.53;;;21.35;48.42
66398;BME280;54877;51.504;3.894;2023-07-02T00:33:09;100873.25;;;21.23;47.88
66398;BME280;54877;51.504;3.894;2023-07-02T00:35:34;100870.53;;;21.32;47.95
66398;BME280;54877;51.504;3.894;2023-07-02T00:37:59;100873.22;;;21.32;47.24
66398;BME280;54877;51.504;3.894;2023-07-02T00:40:26;100874.06;;;21.33;47.28
66398;BME280;54877;51.504;3.894;2023-07-02T00:42:52;100868.84;;;21.31;47.19
66398;BME280;54877;51.504;3.894;2023-07-02T00:45:17;100872.53;;;21.30;47.32
66398;BME280;54877;51.504;3.894;2023-07-02T00:47:43;100878.88;;;21.29;47.01
66398;BME280;54877;51.504;3.894;2023-07-02T00:50:10;100876.19;;;21.29;47.01
66398;BME280;54877;51.504;3.894;2023-07-02T00:52:35;100880.88;;;21.27;46.64
66398;BME280;54877;51.504;3.894;2023-07-02T00:55:01;100879.50;;;21.23;46.38
66398;BME280;54877;51.504;3.894;2023-07-02T00:57:27;100882.88;;;21.16;45.81
66398;BME280;54877;51.504;3.894;2023-07-02T00:59:55;100885.72;;;21.14;45.86
66398;BME280;54877;51.504;3.894;2023-07-02T01:02:25;100885.44;;;21.07;45.35
66398;BME280;54877;51.504;3.894;2023-07-02T01:04:51;100895.22;;;21.08;44.80
66398;BME280;54877;51.504;3.894;2023-07-02T01:07:22;100891.66;;;20.98;44.39
66398;BME280;54877;51.504;3.894;2023-07-02T01:09:48;100893.06;;;21.02;44.63
66398;BME280;54877;51.504;3.894;2023-07-02T01:12:13;100891.66;;;20.98;43.83
66398;BME280;54877;51.504;3.894;2023-07-02T01:14:43;100897.91;;;21.08;44.11
66398;BME280;54877;51.504;3.894;2023-07-02T01:17:16;100887.38;;;21.05;43.62
66398;BME280;54877;51.504;3.894;2023-07-02T01:22:21;100895.63;;;21.04;43.90
66398;BME280;54877;51.504;3.894;2023-07-02T01:24:51;100894.75;;;21.03;43.96
66398;BME280;54877;51.504;3.894;2023-07-02T01:27:16;100901.84;;;21.04;44.07
66398;BME280;54877;51.504;3.894;2023-07-02T01:29:42;100897.06;;;21.08;44.36
66398;BME280;54877;51.504;3.894;2023-07-02T01:32:11;100896.19;;;21.07;44.21
66398;BME280;54877;51.504;3.894;2023-07-02T01:34:40;100905.13;;;20.98;44.04
66398;BME280;54877;51.504;3.894;2023-07-02T01:37:05;100902.16;;;21.01;44.32
66398;BME280;54877;51.504;3.894;2023-07-02T01:39:31;100901.97;;;20.93;44.13
66398;BME280;54877;51.504;3.894;2023-07-02T01:44:42;100905.13;;;20.98;43.67
66398;BME280;54877;51.504;3.894;2023-07-02T01:47:08;100907.81;;;20.98;43.69
66398;BME280;54877;51.504;3.894;2023-07-02T01:49:34;100899.59;;;20.90;42.95
66398;BME280;54877;51.504;3.894;2023-07-02T01:52:01;100899.88;;;20.87;42.99
66398;BME280;54877;51.504;3.894;2023-07-02T01:54:26;100906.50;;;20.83;42.56
66398;BME280;54877;51.504;3.894;2023-07-02T01:56:53;100898.72;;;20.80;42.53
66398;BME280;54877;51.504;3.894;2023-07-02T01:59:19;100901.13;;;20.74;42.46
66398;BME280;54877;51.504;3.894;2023-07-02T02:01:44;100904.38;;;20.77;42.71
66398;BME280;54877;51.504;3.894;2023-07-02T02:04:10;100897.03;;;20.79;42.46
66398;BME280;54877;51.504;3.894;2023-07-02T02:06:36;100911.75;;;20.75;42.85
66398;BME280;54877;51.504;3.894;2023-07-02T02:09:02;100912.16;;;20.71;42.49
66398;BME280;54877;51.504;3.894;2023-07-02T02:11:29;100912.28;;;20.60;42.89
66398;BME280;54877;51.504;3.894;2023-07-02T02:13:55;100911.44;;;20.59;43.02
66398;BME280;54877;51.504;3.894;2023-07-02T02:16:22;100914.56;;;20.64;43.06
66398;BME280;54877;51.504;3.894;2023-07-02T02:18:47;100922.63;;;20.64;43.29
66398;BME280;54877;51.504;3.894;2023-07-02T02:21:16;100918.22;;;20.63;43.67
66398;BME280;54877;51.504;3.894;2023-07-02T02:23:42;100916.53;;;20.62;43.56
66398;BME280;54877;51.504;3.894;2023-07-02T02:26:07;100930.00;;;20.62;43.89
66398;BME280;54877;51.504;3.894;2023-07-02T02:28:33;100939.47;;;20.66;43.90
66398;BME280;54877;51.504;3.894;2023-07-02T02:30:58;100930.41;;;20.67;44.12
66398;BME280;54877;51.504;3.894;2023-07-02T02:33:24;100936.19;;;20.53;44.53
66398;BME280;54877;51.504;3.894;2023-07-02T02:35:50;100941.13;;;20.48;44.68
66398;BME280;54877;51.504;3.894;2023-07-02T02:38:15;100946.34;;;20.49;45.11
66398;BME280;54877;51.504;3.894;2023-07-02T02:40:41;100949.75;;;20.42;45.49
66398;BME280;54877;51.504;3.894;2023-07-02T02:43:06;100951.31;;;20.44;45.47
66398;BME280;54877;51.504;3.894;2023-07-02T02:45:32;100952.75;;;20.48;45.46
66398;BME280;54877;51.504;3.894;2023-07-02T02:47:57;100949.47;;;20.45;45.76
66398;BME280;54877;51.504;3.894;2023-07-02T02:50:22;100949.75;;;20.42;45.84
66398;BME280;54877;51.504;3.894;2023-07-02T02:52:48;100951.88;;;20.48;46.18
66398;BME280;54877;51.504;3.894;2023-07-02T02:55:13;100949.91;;;20.50;46.23
66398;BME280;54877;51.504;3.894;2023-07-02T02:57:39;100949.31;;;20.46;46.37
66398;BME280;54877;51.504;3.894;2023-07-02T03:00:04;100957.72;;;20.53;46.71
66398;BME280;54877;51.504;3.894;2023-07-02T03:02:31;100953.44;;;20.50;46.72
66398;BME280;54877;51.504;3.894;2023-07-02T03:04:57;100953.13;;;20.44;46.64
66398;BME280;54877;51.504;3.894;2023-07-02T03:07:27;100953.03;;;20.45;46.46
66398;BME280;54877;51.504;3.894;2023-07-02T03:09:52;100955.56;;;20.47;46.56
66398;BME280;54877;51.504;3.894;2023-07-02T03:12:18;100962.91;;;20.45;46.46
66398;BME280;54877;51.504;3.894;2023-07-02T03:14:44;100958.66;;;20.42;46.56
66398;BME280;54877;51.504;3.894;2023-07-02T03:17:09;100959.53;;;20.43;46.60
66398;BME280;54877;51.504;3.894;2023-07-02T03:19:35;100959.78;;;20.40;46.40
66398;BME280;54877;51.504;3.894;2023-07-02T03:22:00;100958.34;;;20.36;46.57
66398;BME280;54877;51.504;3.894;2023-07-02T03:24:25;100954.94;;;20.34;46.79
66398;BME280;54877;51.504;3.894;2023-07-02T03:26:51;100959.47;;;20.33;46.86
66398;BME280;54877;51.504;3.894;2023-07-02T03:29:16;100966.41;;;20.36;47.18
66398;BME280;54877;51.504;3.894;2023-07-02T03:31:44;100955.81;;;20.34;47.26
66398;BME280;54877;51.504;3.894;2023-07-02T03:34:10;100961.78;;;20.38;47.37
66398;BME280;54877;51.504;3.894;2023-07-02T03:36:36;100969.69;;;20.39;47.27
66398;BME280;54877;51.504;3.894;2023-07-02T03:39:02;100967.00;;;20.39;47.06
66398;BME280;54877;51.504;3.894;2023-07-02T03:41:28;100969.97;;;20.36;47.18
66398;BME280;54877;51.504;3.894;2023-07-02T03:43:54;100981.69;;;20.35;46.94
66398;BME280;54877;51.504;3.894;2023-07-02T03:46:19;100976.72;;;20.31;47.09
66398;BME280;54877;51.504;3.894;2023-07-02T03:48:45;100972.47;;;20.28;47.03
66398;BME280;54877;51.504;3.894;2023-07-02T03:51:10;100975.06;;;20.19;46.63
66398;BME280;54877;51.504;3.894;2023-07-02T03:53:37;100976.06;;;20.18;46.68
66398;BME280;54877;51.504;3.894;2023-07-02T03:56:03;100975.63;;;20.13;46.71
66398;BME280;54877;51.504;3.894;2023-07-02T03:58:28;100981.97;;;20.12;46.84
66398;BME280;54877;51.504;3.894;2023-07-02T04:00:54;100992.16;;;20.08;46.75
66398;BME280;54877;51.504;3.894;2023-07-02T04:03:19;100988.91;;;20.05;46.96
66398;BME280;54877;51.504;3.894;2023-07-02T04:05:44;100994.28;;;20.05;47.20
66398;BME280;54877;51.504;3.894;2023-07-02T04:08:10;100993.25;;;20.06;47.22
66398;BME280;54877;51.504;3.894;2023-07-02T04:10:35;100996.81;;;20.06;47.40
66398;BME280;54877;51.504;3.894;2023-07-02T04:13:01;100991.44;;;20.06;47.43
66398;BME280;54877;51.504;3.894;2023-07-02T04:15:26;101003.75;;;20.09;47.71
66398;BME280;54877;51.504;3.894;2023-07-02T04:17:52;101008.28;;;20.08;47.81
66398;BME280;54877;51.504;3.894;2023-07-02T04:20:18;101006.31;;;20.10;47.56
66398;BME280;54877;51.504;3.894;2023-07-02T04:22:44;101005.22;;;20.13;47.54
66398;BME280;54877;51.504;3.894;2023-07-02T04:25:11;101002.38;;;20.14;47.44
66398;BME280;54877;51.504;3.894;2023-07-02T04:27:40;101002.09;;;20.17;47.58
66398;BME280;54877;51.504;3.894;2023-07-02T04:30:09;101012.00;;;20.17;47.86
66398;BME280;54877;51.504;3.894;2023-07-02T04:32:36;101010.88;;;20.19;47.90
66398;BME280;54877;51.504;3.894;2023-07-02T04:35:01;101011.75;;;20.20;47.89
66398;BME280;54877;51.504;3.894;2023-07-02T04:37:27;101013.00;;;20.16;48.00
66398;BME280;54877;51.504;3.894;2023-07-02T04:39:53;101021.44;;;20.11;48.01
66398;BME280;54877;51.504;3.894;2023-07-02T04:42:19;101019.34;;;20.15;48.04
66398;BME280;54877;51.504;3.894;2023-07-02T04:44:44;101024.72;;;20.15;47.97
66398;BME280;54877;51.504;3.894;2023-07-02T04:47:10;101025.59;;;20.15;47.90
66398;BME280;54877;51.504;3.894;2023-07-02T04:49:35;101031.22;;;20.12;48.19
66398;BME280;54877;51.504;3.894;2023-07-02T04:52:00;101031.81;;;20.16;48.14
66398;BME280;54877;51.504;3.894;2023-07-02T04:54:26;101037.47;;;20.13;47.96
66398;BME280;54877;51.504;3.894;2023-07-02T04:56:52;101034.78;;;20.13;48.10
66398;BME280;54877;51.504;3.894;2023-07-02T04:59:19;101035.91;;;20.10;48.32
66398;BME280;54877;51.504;3.894;2023-07-02T05:01:45;101033.25;;;20.20;48.12
66398;BME280;54877;51.504;3.894;2023-07-02T05:04:11;101022.63;;;20.18;47.79
66398;BME280;54877;51.504;3.894;2023-07-02T05:06:36;101034.09;;;20.20;47.76
66398;BME280;54877;51.504;3.894;2023-07-02T05:09:02;101035.88;;;20.31;47.60
66398;BME280;54877;51.504;3.894;2023-07-02T05:11:27;101045.41;;;20.35;47.61
66398;BME280;54877;51.504;3.894;2023-07-02T05:13:53;101035.88;;;20.31;47.58
66398;BME280;54877;51.504;3.894;2023-07-02T05:16:18;101046.66;;;20.31;47.61
66398;BME280;54877;51.504;3.894;2023-07-02T05:18:43;101041.06;;;20.23;47.90
66398;BME280;54877;51.504;3.894;2023-07-02T05:21:09;101045.22;;;20.27;47.81
66398;BME280;54877;51.504;3.894;2023-07-02T05:23:34;101042.97;;;20.32;47.73
66398;BME280;54877;51.504;3.894;2023-07-02T05:26:00;101049.47;;;20.29;47.57
66398;BME280;54877;51.504;3.894;2023-07-02T05:28:26;101059.88;;;20.23;47.71
66398;BME280;54877;51.504;3.894;2023-07-02T05:30:51;101064.53;;;20.21;47.49
66398;BME280;54877;51.504;3.894;2023-07-02T05:33:17;101066.09;;;20.23;47.59
66398;BME280;54877;51.504;3.894;2023-07-02T05:35:42;101061.50;;;20.14;47.66
66398;BME280;54877;51.504;3.894;2023-07-02T05:38:08;101055.97;;;20.27;47.46
66398;BME280;54877;51.504;3.894;2023-07-02T05:40:33;101063.09;;;20.37;47.41
66398;BME280;54877;51.504;3.894;2023-07-02T05:42:58;101070.59;;;20.34;47.41
66398;BME280;54877;51.504;3.894;2023-07-02T05:45:24;101069.59;;;20.35;47.70
66398;BME280;54877;51.504;3.894;2023-07-02T05:47:49;101075.81;;;20.35;47.46
66398;BME280;54877;51.504;3.894;2023-07-02T05:50:14;101074.72;;;20.38;47.55
66398;BME280;54877;51.504;3.894;2023-07-02T05:52:40;101071.47;;;20.44;48.05
66398;BME280;54877;51.504;3.894;2023-07-02T05:55:07;101086.19;;;20.40;47.95
66398;BME280;54877;51.504;3.894;2023-07-02T05:57:35;101085.47;;;20.38;48.32
66398;BME280;54877;51.504;3.894;2023-07-02T06:00:01;101082.97;;;20.46;48.66
66398;BME280;54877;51.504;3.894;2023-07-02T06:02:29;101088.81;;;20.51;48.25
66398;BME280;54877;51.504;3.894;2023-07-02T06:04:54;101084.75;;;20.66;48.49
66398;BME280;54877;51.504;3.894;2023-07-02T06:07:19;101089.88;;;20.69;48.19
66398;BME280;54877;51.504;3.894;2023-07-02T06:09:45;101087.63;;;20.74;47.87
66398;BME280;54877;51.504;3.894;2023-07-02T06:12:10;101097.84;;;20.80;47.68
66398;BME280;54877;51.504;3.894;2023-07-02T06:14:36;101092.00;;;21.05;47.33
66398;BME280;54877;51.504;3.894;2023-07-02T06:17:01;101094.91;;;21.23;46.89
66398;BME280;54877;51.504;3.894;2023-07-02T06:19:30;101094.41;;;21.48;46.64
66398;BME280;54877;51.504;3.894;2023-07-02T06:21:55;101103.94;;;21.81;46.07
66398;BME280;54877;51.504;3.894;2023-07-02T06:24:21;101092.47;;;21.89;45.13
66398;BME280;54877;51.504;3.894;2023-07-02T06:26:46;101098.66;;;21.70;44.52
66398;BME280;54877;51.504;3.894;2023-07-02T06:29:12;101105.47;;;21.84;44.35
66398;BME280;54877;51.504;3.894;2023-07-02T06:31:37;101088.44;;;21.83;43.68
66398;BME280;54877;51.504;3.894;2023-07-02T06:34:02;101089.28;;;21.74;43.88
66398;BME280;54877;51.504;3.894;2023-07-02T06:36:28;101093.44;;;21.78;43.80
66398;BME280;54877;51.504;3.894;2023-07-02T06:38:53;101094.09;;;21.51;42.99
66398;BME280;54877;51.504;3.894;2023-07-02T06:41:18;101093.28;;;21.51;43.42
66398;BME280;54877;51.504;3.894;2023-07-02T06:43:44;101106.31;;;21.55;43.92
66398;BME280;54877;51.504;3.894;2023-07-02T06:46:10;101096.66;;;21.53;43.63
66398;BME280;54877;51.504;3.894;2023-07-02T06:48:35;101101.34;;;21.51;43.02
66398;BME280;54877;51.504;3.894;2023-07-02T06:51:01;101104.91;;;21.61;43.30
66398;BME280;54877;51.504;3.894;2023-07-02T06:53:26;101107.47;;;21.72;43.26
66398;BME280;54877;51.504;3.894;2023-07-02T06:55:51;101107.03;;;21.86;43.47
66398;BME280;54877;51.504;3.894;2023-07-02T06:58:17;101109.75;;;21.96;43.83
66398;BME280;54877;51.504;3.894;2023-07-02T07:00:42;101106.19;;;22.05;43.29
66398;BME280;54877;51.504;3.894;2023-07-02T07:03:08;101106.91;;;22.07;42.12
66398;BME280;54877;51.504;3.894;2023-07-02T07:05:33;101106.78;;;21.99;42.03
66398;BME280;54877;51.504;3.894;2023-07-02T07:07:59;101119.41;;;21.98;42.01
66398;BME280;54877;51.504;3.894;2023-07-02T07:10:25;101118.81;;;21.85;42.60
66398;BME280;54877;51.504;3.894;2023-07-02T07:12:51;101123.94;;;21.88;42.48
66398;BME280;54877;51.504;3.894;2023-07-02T07:15:17;101125.94;;;22.05;42.89
66398;BME280;54877;51.504;3.894;2023-07-02T07:17:42;101131.59;;;22.02;42.18
66398;BME280;54877;51.504;3.894;2023-07-02T07:20:08;101132.19;;;22.06;42.46
66398;BME280;54877;51.504;3.894;2023-07-02T07:22:33;101127.50;;;22.08;42.36
66398;BME280;54877;51.504;3.894;2023-07-02T07:24:59;101127.06;;;22.22;42.58
66398;BME280;54877;51.504;3.894;2023-07-02T07:27:24;101125.91;;;22.24;42.38
66398;BME280;54877;51.504;3.894;2023-07-02T07:29:50;101131.44;;;22.33;42.52
66398;BME280;54877;51.504;3.894;2023-07-02T07:32:15;101126.44;;;22.47;42.71
66398;BME280;54877;51.504;3.894;2023-07-02T07:34:41;101143.19;;;22.51;42.44
66398;BME280;54877;51.504;3.894;2023-07-02T07:37:07;101137.81;;;22.41;42.30
66398;BME280;54877;51.504;3.894;2023-07-02T07:39:33;101136.09;;;22.50;43.31
66398;BME280;54877;51.504;3.894;2023-07-02T07:41:58;101137.53;;;22.44;42.84
66398;BME280;54877;51.504;3.894;2023-07-02T07:44:24;101133.53;;;22.58;42.51
66398;BME280;54877;51.504;3.894;2023-07-02T07:46:53;101137.78;;;22.70;42.68
66398;BME280;54877;51.504;3.894;2023-07-02T07:49:19;101137.59;;;22.62;41.68
66398;BME280;54877;51.504;3.894;2023-07-02T07:51:44;101136.38;;;22.47;42.25
66398;BME280;54877;51.504;3.894;2023-07-02T07:54:10;101140.38;;;22.33;42.47
66398;BME280;54877;51.504;3.894;2023-07-02T07:56:35;101139.69;;;22.21;42.76
66398;BME280;54877;51.504;3.894;2023-07-02T07:59:00;101148.38;;;22.06;43.23
66398;BME280;54877;51.504;3.894;2023-07-02T08:01:26;101143.53;;;21.90;43.73
66398;BME280;54877;51.504;3.894;2023-07-02T08:03:52;101146.09;;;21.92;44.03
66398;BME280;54877;51.504;3.894;2023-07-02T08:06:17;101141.41;;;21.94;44.23
66398;BME280;54877;51.504;3.894;2023-07-02T08:08:43;101150.66;;;22.01;44.56
66398;BME280;54877;51.504;3.894;2023-07-02T08:11:08;101147.78;;;22.02;44.76
66398;BME280;54877;51.504;3.894;2023-07-02T08:13:33;101148.94;;;22.29;44.95
66398;BME280;54877;51.504;3.894;2023-07-02T08:15:59;101142.50;;;22.39;45.30
66398;BME280;54877;51.504;3.894;2023-07-02T08:18:24;101144.31;;;22.58;44.75
66398;BME280;54877;51.504;3.894;2023-07-02T08:20:49;101145.44;;;22.65;43.36
66398;BME280;54877;51.504;3.894;2023-07-02T08:23:14;101143.84;;;22.81;42.45
66398;BME280;54877;51.504;3.894;2023-07-02T08:25:40;101145.38;;;22.84;43.08
66398;BME280;54877;51.504;3.894;2023-07-02T08:28:05;101158.09;;;23.11;43.08
66398;BME280;54877;51.504;3.894;2023-07-02T08:30:30;101149.16;;;23.37;41.31
66398;BME280;54877;51.504;3.894;2023-07-02T08:32:56;101162.81;;;23.36;41.63
66398;BME280;54877;51.504;3.894;2023-07-02T08:35:21;101167.94;;;23.39;42.93
66398;BME280;54877;51.504;3.894;2023-07-02T08:37:47;101164.25;;;23.30;43.47
66398;BME280;54877;51.504;3.894;2023-07-02T08:40:17;101166.91;;;23.03;43.29
66398;BME280;54877;51.504;3.894;2023-07-02T08:42:43;101159.53;;;23.05;43.01
66398;BME280;54877;51.504;3.894;2023-07-02T08:45:10;101174.91;;;22.95;42.67
66398;BME280;54877;51.504;3.894;2023-07-02T08:47:36;101174.78;;;22.87;42.78
66398;BME280;54877;51.504;3.894;2023-07-02T08:50:02;101175.25;;;22.73;42.61
66398;BME280;54877;51.504;3.894;2023-07-02T08:52:28;101178.97;;;22.53;42.97
66398;BME280;54877;51.504;3.894;2023-07-02T08:54:53;101183.81;;;22.59;43.05
66398;BME280;54877;51.504;3.894;2023-07-02T08:57:19;101179.22;;;22.88;42.48
66398;BME280;54877;51.504;3.894;2023-07-02T08:59:46;101183.97;;;23.13;41.71
66398;BME280;54877;51.504;3.894;2023-07-02T09:02:12;101188.53;;;23.03;41.92
66398;BME280;54877;51.504;3.894;2023-07-02T09:04:38;101188.22;;;23.06;41.50
66398;BME280;54877;51.504;3.894;2023-07-02T09:09:33;101186.72;;;22.94;42.10
66398;BME280;54877;51.504;3.894;2023-07-02T09:12:09;101191.28;;;22.84;42.16
66398;BME280;54877;51.504;3.894;2023-07-02T09:14:34;101192.25;;;22.93;41.84
66398;BME280;54877;51.504;3.894;2023-07-02T09:17:06;101182.91;;;22.87;41.09
66398;BME280;54877;51.504;3.894;2023-07-02T09:19:36;101184.91;;;22.85;41.66
66398;BME280;54877;51.504;3.894;2023-07-02T09:22:14;101179.78;;;22.82;41.14
66398;BME280;54877;51.504;3.894;2023-07-02T09:24:40;101178.09;;;22.81;41.06
66398;BME280;54877;51.504;3.894;2023-07-02T09:27:06;101196.50;;;22.95;41.52
66398;BME280;54877;51.504;3.894;2023-07-02T09:29:32;101186.56;;;22.96;41.26
66398;BME280;54877;51.504;3.894;2023-07-02T09:31:59;101193.59;;;23.16;40.28
66398;BME280;54877;51.504;3.894;2023-07-02T09:34:28;101191.56;;;23.27;39.89
66398;BME280;54877;51.504;3.894;2023-07-02T09:36:58;101188.81;;;23.64;39.89
66398;BME280;54877;51.504;3.894;2023-07-02T09:39:30;101183.78;;;23.52;39.13
66398;BME280;54877;51.504;3.894;2023-07-02T09:42:00;101195.28;;;23.54;39.23
66398;BME280;54877;51.504;3.894;2023-07-02T09:44:28;101186.59;;;23.60;39.14
66398;BME280;54877;51.504;3.894;2023-07-02T09:47:01;101187.78;;;23.48;38.16
66398;BME280;54877;51.504;3.894;2023-07-02T09:52:04;101192.44;;;23.28;39.61
66398;BME280;54877;51.504;3.894;2023-07-02T09:54:31;101202.09;;;23.30;39.76
66398;BME280;54877;51.504;3.894;2023-07-02T09:56:58;101197.16;;;23.16;38.17
66398;BME280;54877;51.504;3.894;2023-07-02T09:59:24;101201.25;;;23.20;38.70
66398;BME280;54877;51.504;3.894;2023-07-02T10:01:50;101196.72;;;23.21;39.01
66398;BME280;54877;51.504;3.894;2023-07-02T10:04:17;101202.69;;;23.15;39.45
66398;BME280;54877;51.504;3.894;2023-07-02T10:06:47;101200.75;;;23.07;38.93
66398;BME280;54877;51.504;3.894;2023-07-02T10:09:13;101209.53;;;23.09;38.90
66398;BME280;54877;51.504;3.894;2023-07-02T10:11:39;101204.00;;;23.11;38.69
66398;BME280;54877;51.504;3.894;2023-07-02T10:14:04;101189.97;;;23.44;38.47
66398;BME280;54877;51.504;3.894;2023-07-02T10:16:29;101199.28;;;23.77;37.70
66398;BME280;54877;51.504;3.894;2023-07-02T10:19:18;101198.28;;;23.78;36.87
66398;BME280;54877;51.504;3.894;2023-07-02T10:21:42;101206.81;;;23.83;37.67
66398;BME280;54877;51.504;3.894;2023-07-02T10:24:14;101217.31;;;23.59;37.65
66398;BME280;54877;51.504;3.894;2023-07-02T10:29:22;101216.13;;;23.71;37.43
66398;BME280;54877;51.504;3.894;2023-07-02T10:31:49;101214.19;;;23.81;37.64
66398;BME280;54877;51.504;3.894;2023-07-02T10:34:15;101216.13;;;24.16;37.79
66398;BME280;54877;51.504;3.894;2023-07-02T10:36:41;101207.28;;;24.31;37.66
66398;BME280;54877;51.504;3.894;2023-07-02T10:39:06;101209.81;;;24.50;36.90
66398;BME280;54877;51.504;3.894;2023-07-02T10:41:33;101215.41;;;24.31;36.78
66398;BME280;54877;51.504;3.894;2023-07-02T10:44:06;101208.28;;;24.30;37.36
66398;BME280;54877;51.504;3.894;2023-07-02T10:46:32;101215.75;;;24.72;37.13
66398;BME280;54877;51.504;3.894;2023-07-02T10:48:58;101217.94;;;24.50;36.80
66398;BME280;54877;51.504;3.894;2023-07-02T10:51:23;101225.31;;;24.23;37.19
66398;BME280;54877;51.504;3.894;2023-07-02T10:53:59;101219.47;;;24.00;38.13
66398;BME280;54877;51.504;3.894;2023-07-02T10:56:26;101220.19;;;24.02;38.66
66398;BME280;54877;51.504;3.894;2023-07-02T10:58:55;101218.34;;;24.20;37.69
66398;BME280;54877;51.504;3.894;2023-07-02T11:01:24;101219.34;;;24.19;37.06
66398;BME280;54877;51.504;3.894;2023-07-02T11:03:57;101225.91;;;23.99;37.80
66398;BME280;54877;51.504;3.894;2023-07-02T11:06:23;101226.03;;;23.80;38.88
66398;BME280;54877;51.504;3.894;2023-07-02T11:08:48;101218.34;;;23.75;39.13
66398;BME280;54877;51.504;3.894;2023-07-02T11:11:14;101214.91;;;23.83;39.96
66398;BME280;54877;51.504;3.894;2023-07-02T11:13:46;101221.28;;;24.09;39.50
66398;BME280;54877;51.504;3.894;2023-07-02T11:16:18;101219.59;;;24.43;39.07
66398;BME280;54877;51.504;3.894;2023-07-02T11:18:51;101221.75;;;24.58;38.77
66398;BME280;54877;51.504;3.894;2023-07-02T11:21:33;101219.03;;;24.58;38.91
66398;BME280;54877;51.504;3.894;2023-07-02T11:24:05;101227.06;;;24.67;38.84
66398;BME280;54877;51.504;3.894;2023-07-02T11:26:36;101224.94;;;24.79;38.19
66398;BME280;54877;51.504;3.894;2023-07-02T11:29:03;101214.41;;;24.93;36.66
66398;BME280;54877;51.504;3.894;2023-07-02T11:31:28;101222.19;;;24.71;36.10
66398;BME280;54877;51.504;3.894;2023-07-02T11:33:54;101227.53;;;24.63;35.96
66398;BME280;54877;51.504;3.894;2023-07-02T11:36:20;101227.78;;;24.51;34.85
66398;BME280;54877;51.504;3.894;2023-07-02T11:38:48;101223.22;;;24.52;35.07
66398;BME280;54877;51.504;3.894;2023-07-02T11:41:15;101217.81;;;24.52;36.59
66398;BME280;54877;51.504;3.894;2023-07-02T11:43:41;101216.75;;;24.71;36.86
66398;BME280;54877;51.504;3.894;2023-07-02T11:46:06;101213.34;;;24.86;37.32
66398;BME280;54877;51.504;3.894;2023-07-02T11:48:31;101222.38;;;24.95;36.35
66398;BME280;54877;51.504;3.894;2023-07-02T11:50:57;101230.41;;;25.04;36.87
66398;BME280;54877;51.504;3.894;2023-07-02T11:53:22;101230.28;;;24.88;35.55
66398;BME280;54877;51.504;3.894;2023-07-02T11:55:48;101236.03;;;24.85;35.58
66398;BME280;54877;51.504;3.894;2023-07-02T11:58:13;101231.00;;;24.73;35.36
66398;BME280;54877;51.504;3.894;2023-07-02T12:00:39;101239.84;;;24.57;35.72
66398;BME280;54877;51.504;3.894;2023-07-02T12:03:04;101225.75;;;24.36;35.88
66398;BME280;54877;51.504;3.894;2023-07-02T12:05:29;101223.38;;;24.15;35.08
66398;BME280;54877;51.504;3.894;2023-07-02T12:07:55;101227.25;;;24.13;35.79
66398;BME280;54877;51.504;3.894;2023-07-02T12:10:20;101217.91;;;23.97;36.76
66398;BME280;54877;51.504;3.894;2023-07-02T12:12:46;101234.91;;;24.17;36.19
66398;BME280;54877;51.504;3.894;2023-07-02T12:15:11;101224.16;;;24.43;35.52
66398;BME280;54877;51.504;3.894;2023-07-02T12:17:36;101222.44;;;24.42;35.53
66398;BME280;54877;51.504;3.894;2023-07-02T12:20:02;101230.25;;;24.63;36.02
66398;BME280;54877;51.504;3.894;2023-07-02T12:22:28;101232.69;;;24.74;35.74
66398;BME280;54877;51.504;3.894;2023-07-02T12:24:53;101235.06;;;24.94;34.40
66398;BME280;54877;51.504;3.894;2023-07-02T12:27:21;101240.06;;;25.07;34.76
66398;BME280;54877;51.504;3.894;2023-07-02T12:29:46;101230.75;;;24.84;34.82
66398;BME280;54877;51.504;3.894;2023-07-02T12:32:13;101230.50;;;24.95;34.79
66398;BME280;54877;51.504;3.894;2023-07-02T12:34:39;101226.13;;;24.76;34.91
66398;BME280;54877;51.504;3.894;2023-07-02T12:37:04;101226.34;;;24.83;34.34
66398;BME280;54877;51.504;3.894;2023-07-02T12:39:30;101233.00;;;24.71;33.81
66398;BME280;54877;51.504;3.894;2023-07-02T12:41:56;101231.63;;;24.67;33.72
66398;BME280;54877;51.504;3.894;2023-07-02T12:44:21;101234.25;;;24.59;33.63
66398;BME280;54877;51.504;3.894;2023-07-02T12:46:46;101245.88;;;24.69;34.33
66398;BME280;54877;51.504;3.894;2023-07-02T12:49:12;101229.69;;;24.77;35.03
66398;BME280;54877;51.504;3.894;2023-07-02T12:51:38;101229.69;;;24.77;34.08
66398;BME280;54877;51.504;3.894;2023-07-02T12:54:03;101238.25;;;24.90;33.39
66398;BME280;54877;51.504;3.894;2023-07-02T12:56:29;101227.78;;;24.95;34.07
66398;BME280;54877;51.504;3.894;2023-07-02T12:58:54;101235.06;;;24.94;34.38